CST,Max TemperatureF,Mean TemperatureF,Min TemperatureF,Max Dew PointF,MeanDew PointF,Min DewpointF,Max Humidity, Mean Humidity, Min Humidity, Max Sea Level PressureIn, Mean Sea Level PressureIn, Min Sea Level PressureIn, Max VisibilityMiles, Mean VisibilityMiles, Min VisibilityMiles, Max Wind SpeedMPH, Mean Wind SpeedMPH, Max Gust SpeedMPH,PrecipitationIn, CloudCover, Events, WindDirDegrees
2013-1-1,23,12,1,10,4,-6,79,66,43,30.34,30.26,30.17,10,10,10,8,5,,0.00,2,,241
2013-1-2,35,24,12,27,18,7,86,75,64,30.24,30.13,30.08,10,10,5,12,5,,0.00,5,Snow,240
2013-1-3,33,24,15,27,19,10,80,71,55,30.42,30.36,30.24,10,10,10,15,5,20,0.00,6,,314
2013-1-4,42,28,15,23,18,10,86,69,45,30.35,30.25,30.18,10,10,10,15,6,,0.00,2,,223
2013-1-5,44,32,19,32,22,14,86,70,52,30.21,30.10,30.00,10,10,7,22,6,28,0.00,3,,258
2013-1-6,42,28,15,21,18,10,80,63,39,30.35,30.27,30.18,10,10,10,16,8,21,0.00,3,,236
2013-1-7,51,38,26,28,24,19,80,61,33,30.18,30.06,29.98,10,10,10,24,10,30,0.00,2,,194
2013-1-8,53,42,28,30,28,23,80,64,41,30.15,29.97,29.86,10,10,10,23,7,29,0.00,2,,214
2013-1-9,53,38,23,34,27,18,86,69,38,30.45,30.35,30.16,10,10,7,8,2,,0.00,2,,207
2013-1-10,46,40,33,37,32,23,93,72,43,30.36,30.01,29.73,10,7,0,17,5,20,0.22,6,Fog-Rain,134
2013-1-11,57,47,35,48,42,30,93,79,51,29.74,29.57,29.45,10,7,0,26,10,33,0.01,5,Fog,184
2013-1-12,35,26,17,28,12,7,75,59,43,30.13,30.04,29.77,10,10,10,22,13,29,0.00,3,,312
2013-1-13,26,18,10,7,4,0,79,59,31,30.36,30.23,30.12,10,10,10,14,8,18,0.00,3,,310
2013-1-14,32,19,6,12,7,1,79,63,35,30.49,30.41,30.36,10,10,10,9,1,,0.00,2,,219
2013-1-15,37,26,15,16,12,7,79,58,28,30.39,30.27,30.10,10,10,10,12,3,,0.00,2,,207
2013-1-16,55,38,21,32,24,12,75,60,38,30.24,30.04,29.96,10,10,10,15,7,20,0.00,3,,270
2013-1-17,44,32,19,30,24,16,86,71,53,30.48,30.39,30.24,10,10,5,7,4,,0.00,2,,342
2013-1-18,60,45,30,32,28,25,80,58,27,30.32,30.07,29.93,10,10,10,25,10,31,0.00,2,,214
2013-1-19,59,44,28,30,26,16,81,54,23,30.33,30.04,29.89,10,10,10,20,10,31,0.00,2,,298
2013-1-20,26,20,12,12,8,3,79,60,40,30.43,30.39,30.34,10,10,10,13,7,16,0.00,4,,13
2013-1-21,19,14,10,10,-3,-11,79,47,30,30.48,30.41,30.38,10,10,10,16,7,23,0.00,5,Snow,338
2013-1-22,24,18,12,12,7,-2,79,65,45,30.42,30.34,30.28,10,8,2,9,2,,0.01,4,Snow,88
2013-1-23,37,24,12,21,12,1,79,62,48,30.52,30.29,30.18,10,10,10,18,5,23,0.00,2,,1
2013-1-24,24,15,6,7,-1,-6,62,49,36,30.57,30.41,30.20,10,10,10,17,10,22,0.00,3,,106
2013-1-25,51,32,12,21,15,5,79,54,26,30.26,30.19,30.14,10,10,10,12,4,17,0.00,2,,287
2013-1-26,51,35,19,21,16,10,86,53,26,30.30,30.20,30.06,10,10,10,16,8,18,0.00,2,,124
2013-1-27,48,42,37,46,36,19,93,79,39,30.05,29.85,29.71,10,4,0,16,11,21,0.29,8,Fog-Rain,159
2013-1-28,62,50,37,55,42,34,93,87,77,29.89,29.76,29.55,10,2,0,18,6,25,0.01,7,Fog,127
2013-1-29,62,48,35,55,34,28,87,80,75,29.71,29.63,29.53,10,6,1,18,11,25,0.02,8,Snow,351
2013-1-30,33,22,12,28,17,7,86,70,55,29.95,29.79,29.60,10,6,0,31,16,40,0.11,6,Snow,321
2013-1-31,19,10,0,12,-1,-9,74,58,45,30.44,30.20,29.95,10,10,5,23,9,30,0.00,4,,316